EBCI - Charleroi/Gosselies, Belgium
Distance de la station: NE 18km
Mise à jour: 21/10/2021 20:20
quelques nuages
quelques nuages
 Wind from OSO
Vent: OSO 7 km/h
Température: 6°C
Température ressentie: 4°C
Point de rosée: 5°C
Humidité: 93%
Baromètre: 1014 hPa
Ciel: quelques nuages
Visibilité: 10 km
Détails du ciel: quelques nuages 671 m
2021/10/21 18:20 EBCI 211820Z 25004KT 9999 FEW022 06/05 Q1014 NOSIG
EBFS - Florennes, Belgium
Distance de la station: ESE 31km
Mise à jour: 21/10/2021 17:25
NOT Current
partiellement nuageux
partiellement nuageux
 Wind from NO
Vent: NO 13 km/h
Température: 8°C
Température ressentie: 6°C
Point de rosée: 5°C
Humidité: 82%
Baromètre: 1011 hPa
Ciel: partiellement nuageux
Visibilité: 10 km
Détails du ciel: quelques nuages 335 m
partiellement nuageux 1067 m
2021/10/21 15:25 EBFS 211525Z AUTO 31007KT 9999 FEW011/// SCT035/// 08/05 Q1011 BLU
EBCV - Chievres, Belgium
Distance de la station: NO 40km
Mise à jour: 21/10/2021 20:25
clair
clair
 Wind from O
Vent: O 7 km/h
Température: 8°C
Température ressentie: 7°C
Point de rosée: 5°C
Humidité: 82%
Baromètre: 1014 hPa
Ciel: clair
Visibilité: 10 km
2021/10/21 18:25 EBCV 211825Z AUTO 26004KT 9999 NCD 08/05 Q1014 BLU
 
EBBE - Beauvechain, Belgium
Distance de la station: NE 57km
Mise à jour: 21/10/2021 20:25
quelques nuages
quelques nuages
 Wind from OSO
Vent: OSO 11 km/h
Température: 7°C
Température ressentie: 5°C
Point de rosée: 6°C
Humidité: 93%
Baromètre: 1014 hPa
Ciel: quelques nuages
Visibilité: 10 km
Détails du ciel: quelques nuages 1829 m
2021/10/21 18:25 EBBE 211825Z AUTO 24006KT 9999 FEW060/// 07/06 Q1014 BLU
EBBR - Brussels National, Belgium
Distance de la station: NNE 63km
Mise à jour: 21/10/2021 20:20
quelques nuages
quelques nuages
 Wind from OSO
Vent: OSO 13 km/h
Température: 7°C
Température ressentie: 5°C
Point de rosée: 5°C
Humidité: 87%
Baromètre: 1013 hPa
Ciel: quelques nuages
Visibilité: 10 km
Détails du ciel: quelques nuages 762 m
2021/10/21 18:20 EBBR 211820Z 25007KT 9999 FEW025 07/05 Q1013 NOSIG
LFQI - Cambrai/Epinoy, France
Distance de la station: O 82km
Mise à jour: 29/06/2012 12:30
NOT Current

 Wind from SO
Vent: SO 17 km/h
Température: 18°C
Point de rosée: 14°C
Humidité: 78%
Baromètre: 1009 hPa
2012/06/29 10:30 LFQI 291030Z AUTO 22009KT //// // ///////// 18/14 Q1009
 
LFQQ - Lille/Lesquin, France
Distance de la station: ONO 86km
Mise à jour: 21/10/2021 20:30
clair
clair
 Wind from O
Vent: O 13 km/h
Température: 7°C
Température ressentie: 5°C
Point de rosée: 5°C
Humidité: 87%
Baromètre: 1015 hPa
Résumé: clair
Visibilité: greater than 10 km
2021/10/21 18:30 LFQQ 211830Z AUTO 26007KT CAVOK 07/05 Q1015 TEMPO 32010KT
EBLG - Bierset/Liege, Belgium
Distance de la station: ENE 89km
Mise à jour: 21/10/2021 20:20
quelques nuages
quelques nuages
 Wind from O
Vent: O 13 km/h
Température: 6°C
Température ressentie: 3°C
Point de rosée: 5°C
Humidité: 93%
Baromètre: 1013 hPa
Ciel: quelques nuages
Visibilité: 10 km
Détails du ciel: quelques nuages 732 m
2021/10/21 18:20 EBLG 211820Z 27007KT 9999 FEW024 06/05 Q1013 NOSIG
EBDT - Schaffen, Belgium
Distance de la station: NE 93km
Mise à jour: 21/10/2021 20:25
principalement nuageux
principalement nuageux
 Wind from OSO
Vent: OSO 13 km/h
Température: 7°C
Température ressentie: 5°C
Point de rosée: 5°C
Humidité: 87%
Baromètre: 1013 hPa
Ciel: principalement nuageux
Visibilité: 10 km
Détails du ciel: principalement nuageux 1402 m
2021/10/21 18:25 EBDT 211825Z AUTO 25007KT 9999 BKN046/// 07/05 Q1013 BLU
 
EBAW - Antwerp/Deurne, Belgium
Distance de la station: N 96km
Mise à jour: 21/10/2021 20:20
quelques nuages
quelques nuages
 Wind from O
Vent: O 13 km/h
Température: 8°C
Température ressentie: 6°C
Point de rosée: 4°C
Humidité: 76%
Baromètre: 1013 hPa
Ciel: quelques nuages
Visibilité: 10 km
Détails du ciel: quelques nuages 914 m
2021/10/21 18:20 EBAW 211820Z 26007KT 9999 FEW030 08/04 Q1013 NOSIG
LFAQ - Bray, France
Distance de la station: OSO 119km
Mise à jour: 21/10/2021 20:30
clair
clair
 Wind from ONO
Vent: ONO 11 km/h
Température: 6°C
Température ressentie: 4°C
Point de rosée: 5°C
Humidité: 93%
Baromètre: 1016 hPa
Résumé: clair
Visibilité: greater than 10 km
2021/10/21 18:30 LFAQ 211830Z AUTO 29006KT CAVOK 06/05 Q1016
LFSR - Reims/Champagne, France
Distance de la station: S 120km
Mise à jour: 16/04/2012 09:00
NOT Current
partiellement nuageux
partiellement nuageux
 Wind from N
Vent: N 17 km/h
Température: 4°C
Température ressentie: 0°C
Point de rosée: 0°C
Humidité: 75%
Baromètre: 1022 hPa
Ciel: partiellement nuageux
Visibilité: 10 km
2012/04/16 07:00 LFSR 160700Z AUTO 01009KT 340V070 9999 NSC 04/00 Q1022
 
EHWO - Woensdrecht, Netherlands
Distance de la station: N 122km
Mise à jour: 21/10/2021 20:25
couvert
couvert
 Wind from ONO
Vent: ONO 11 km/h
Température: 8°C
Température ressentie: 6°C
Point de rosée: 4°C
Humidité: 76%
Baromètre: 1013 hPa
Ciel: couvert
Visibilité: 10 km
Détails du ciel: couvert 8534 m
2021/10/21 18:25 EHWO 211825Z AUTO 29006KT 250V340 9999 OVC280 08/04 Q1013 BLU
EHBK - Zuid-Limburg, Netherlands
Distance de la station: ENE 123km
Mise à jour: 21/10/2021 20:25
partiellement nuageux
partiellement nuageux
 Wind from OSO
Vent: OSO 9 km/h
Température: 7°C
Température ressentie: 6°C
Point de rosée: 5°C
Humidité: 87%
Baromètre: 1012 hPa
Ciel: partiellement nuageux
Visibilité: 10 km
2021/10/21 18:25 EHBK 211825Z AUTO 25005KT 210V290 9999 NSC 07/05 Q1012 NOSIG
EBBL - Kleine-Brogel, Belgium
Distance de la station: NE 124km
Mise à jour: 21/10/2021 20:25
partiellement nuageux
partiellement nuageux
 Wind from OSO
Vent: OSO 13 km/h
Température: 7°C
Température ressentie: 5°C
Point de rosée: 5°C
Humidité: 87%
Baromètre: 1012 hPa
Ciel: partiellement nuageux
Visibilité: 10 km
Détails du ciel: partiellement nuageux 1067 m
2021/10/21 18:25 EBBL 211825Z 25007KT 9999 SCT035 07/05 Q1012 BLU BLU
 
EBLB - Elsenborn, Belgium
Distance de la station: E 135km
Mise à jour: 21/10/2021 20:25
quelques nuages
quelques nuages
 Wind from ONO
Vent: ONO 9 km/h
Température: 4°C
Température ressentie: 2°C
Point de rosée: 3°C
Humidité: 93%
Baromètre: 1012 hPa
Ciel: quelques nuages
Visibilité: 10 km
Détails du ciel: quelques nuages 1859 m
2021/10/21 18:25 EBLB 211825Z AUTO 29005KT 9999 FEW061/// 04/03 Q1012 BLU
EBOS - Oostende Airport, Belgium
Distance de la station: NO 136km
Mise à jour: 21/10/2021 20:20
partiellement nuageux
partiellement nuageux
 Wind from NO
Vent: NO 26 km/h
Température: 10°C
Température ressentie: 7°C
Point de rosée: 3°C
Humidité: 62%
Baromètre: 1015 hPa
Ciel: partiellement nuageux
Visibilité: 10 km
Détails du ciel: partiellement nuageux 1189 m
2021/10/21 18:20 EBOS 211820Z 32014KT 9999 SCT039 10/03 Q1015 NOSIG
EBFN - Koksijde, Belgium
Distance de la station: NO 140km
Mise à jour: 21/10/2021 20:25
partiellement nuageux
partiellement nuageux
 Wind from NO
Vent: NO 24 km/h
Température: 11°C
Point de rosée: 3°C
Humidité: 58%
Baromètre: 1015 hPa
Ciel: partiellement nuageux
Visibilité: 10 km
Détails du ciel: partiellement nuageux 1189 m
2021/10/21 18:25 EBFN 211825Z AUTO 32013KT 9999 SCT039/// 11/03 Q1015 BLU
 
ETNG - Geilenkirchen, Germany
Distance de la station: ENE 142km
Mise à jour: 21/10/2021 19:50
clair
clair
 Wind from OSO
Vent: OSO 7 km/h
Température: 8°C
Température ressentie: 7°C
Point de rosée: 6°C
Humidité: 87%
Baromètre: 1011 hPa
Résumé: clair
Visibilité: greater than 10 km
2021/10/21 17:50 ETNG 211750Z 25004KT CAVOK 08/06 Q1011
EHGR - Gilze-Rijen, Netherlands
Distance de la station: NNE 143km
Mise à jour: 21/10/2021 20:25
clair
clair
 Wind from OSO
Vent: OSO 11 km/h
Température: 7°C
Température ressentie: 5°C
Point de rosée: 4°C
Humidité: 81%
Baromètre: 1012 hPa
Ciel: clair
Visibilité: 10 km
2021/10/21 18:25 EHGR 211825Z AUTO 24006KT 9999 NCD 07/04 Q1012 BLU
EHEH - Eindhoven, Netherlands
Distance de la station: NNE 147km
Mise à jour: 21/10/2021 20:25
partiellement nuageux
partiellement nuageux
 Wind from OSO
Vent: OSO 11 km/h
Température: 5°C
Température ressentie: 2°C
Point de rosée: 5°C
Humidité: 100%
Baromètre: 1012 hPa
Ciel: partiellement nuageux
Visibilité: 10 km
Détails du ciel: partiellement nuageux 7925 m
2021/10/21 18:25 EHEH 211825Z AUTO 24006KT 9999 SCT260 05/05 Q1012 BLU TEMPO SCT015 SCT020CB BKN025
 
ELLX - Luxembourg, Luxembourg
Distance de la station: ESE 162km
Mise à jour: 21/10/2021 20:20
partiellement nuageux
partiellement nuageux
 Wind from NO
Vent: NO 9 km/h
Température: 6°C
Température ressentie: 4°C
Point de rosée: 5°C
Humidité: 93%
Baromètre: 1013 hPa
Ciel: partiellement nuageux
Visibilité: 10 km
Détails du ciel: quelques nuages 549 m
partiellement nuageux 2134 m
2021/10/21 18:20 ELLX 211820Z 31005KT 9999 FEW018 SCT070 06/05 Q1013 NOSIG
EHVK - Volkel, Netherlands
Distance de la station: NE 174km
Mise à jour: 21/10/2021 20:25
principalement nuageux
principalement nuageux
 Wind from OSO
Vent: OSO 9 km/h
Température: 6°C
Température ressentie: 4°C
Point de rosée: 3°C
Humidité: 81%
Baromètre: 1011 hPa
Ciel: principalement nuageux
Visibilité: 10 km
Détails du ciel: quelques nuages 1341 m
principalement nuageux 7925 m
2021/10/21 18:25 EHVK 211825Z AUTO 25005KT 9999 FEW044 BKN260 06/03 Q1011 BLU
LFOK - Chalons/Vatry, France
Distance de la station: S 174km
Mise à jour: 21/10/2021 20:30
principalement nuageux
principalement nuageux
 Wind from NNO
Vent: NNO 13 km/h
Température: 8°C
Température ressentie: 6°C
Point de rosée: 7°C
Humidité: 93%
Baromètre: 1015 hPa
Ciel: principalement nuageux
Visibilité: 10 km
Détails du ciel: principalement nuageux 549 m
principalement nuageux 732 m
principalement nuageux 1128 m
2021/10/21 18:30 LFOK 211830Z AUTO 34007KT 9999 BKN018 BKN024 BKN037 08/07 Q1015 TEMPO BKN012
Script from Saratoga-Weather.org